Time;durP1;ratioP1;P1;durP2;ratioP2;P2;SDS_P1;SDS_P2;PMS_P1;PMS_P2;Temp;Humidity;BMP_temperature;BMP_pressure;BME280_temperature;BME280_humidity;BME280_pressure;Samples;Min_cycle;Max_cycle;Signal;HPM_P1;HPM_P2
2023/12/08 00:00:11;;;;;;;17.43;10.80;;;5.10;38.40;;;;;;5093625;28;20440;-71
2023/12/08 00:02:36;;;;;;;17.25;10.27;;;5.10;40.10;;;;;;5094308;28;20374;-70
2023/12/08 00:05:03;;;;;;;16.23;11.10;;;5.10;39.50;;;;;;5095037;28;20374;-72
2023/12/08 00:07:28;;;;;;;15.05;10.55;;;5.10;40.20;;;;;;5093990;28;20467;-71
2023/12/08 00:09:54;;;;;;;14.50;10.40;;;5.10;40.40;;;;;;5094109;28;20382;-74
2023/12/08 00:12:20;;;;;;;14.20;10.20;;;5.10;38.20;;;;;;5096310;28;20736;-71
2023/12/08 00:14:45;;;;;;;13.43;10.17;;;5.20;38.30;;;;;;5095610;28;20407;-71
2023/12/08 00:17:11;;;;;;;14.60;10.35;;;5.10;39.10;;;;;;5094864;28;20401;-74
2023/12/08 00:19:37;;;;;;;19.67;12.00;;;5.10;39.50;;;;;;5075328;28;20766;-71
2023/12/08 00:22:03;;;;;;;15.90;9.93;;;5.10;41.10;;;;;;5097346;28;20418;-72
2023/12/08 00:24:28;;;;;;;19.23;11.83;;;5.10;39.90;;;;;;5095798;28;20385;-71
2023/12/08 00:26:54;;;;;;;15.97;10.70;;;5.10;42.40;;;;;;5093794;28;20442;-72
2023/12/08 00:29:20;;;;;;;16.63;9.98;;;5.00;42.00;;;;;;5092811;28;20725;-71
2023/12/08 00:31:45;;;;;;;16.08;10.40;;;5.10;40.00;;;;;;5091340;28;20434;-70
2023/12/08 00:34:11;;;;;;;15.13;10.38;;;5.10;39.70;;;;;;5091077;28;20856;-72
2023/12/08 00:36:37;;;;;;;17.30;10.93;;;5.10;40.60;;;;;;5090881;28;20389;-71
2023/12/08 00:39:02;;;;;;;15.15;10.30;;;4.90;39.10;;;;;;5091112;28;20382;-72
2023/12/08 00:41:28;;;;;;;16.90;10.80;;;5.00;38.70;;;;;;5091200;28;20583;-72
2023/12/08 00:43:54;;;;;;;16.77;11.30;;;5.00;40.70;;;;;;5090704;28;20848;-72
2023/12/08 00:46:19;;;;;;;16.93;10.40;;;5.00;38.80;;;;;;5090909;28;20439;-69
2023/12/08 00:48:45;;;;;;;17.67;11.40;;;5.00;39.60;;;;;;5092007;28;20385;-72
2023/12/08 00:51:14;;;;;;;17.83;10.83;;;5.10;40.50;;;;;;5075968;28;20393;-71
2023/12/08 00:53:41;;;;;;;17.55;10.73;;;5.20;39.80;;;;;;5076985;28;20401;-71
2023/12/08 00:56:07;;;;;;;18.50;11.52;;;5.10;38.50;;;;;;5096489;28;20389;-71
2023/12/08 00:58:32;;;;;;;15.85;10.48;;;5.10;40.10;;;;;;5091228;28;20377;-70
2023/12/08 01:00:58;;;;;;;17.80;10.80;;;5.20;37.20;;;;;;5092007;28;20557;-71
2023/12/08 01:03:23;;;;;;;16.25;10.68;;;5.20;38.80;;;;;;5091696;28;20390;-71
2023/12/08 01:05:49;;;;;;;17.15;11.45;;;5.20;37.80;;;;;;5090554;28;20375;-71
2023/12/08 01:08:15;;;;;;;18.45;10.63;;;5.10;36.50;;;;;;5072319;28;20489;-71
2023/12/08 01:10:40;;;;;;;16.58;10.27;;;5.10;37.80;;;;;;5090398;28;20386;-71
2023/12/08 01:13:06;;;;;;;17.13;11.32;;;5.10;38.20;;;;;;5090699;28;20390;-70
2023/12/08 01:15:31;;;;;;;20.55;10.25;;;5.20;37.10;;;;;;5090228;28;20889;-71
2023/12/08 01:17:57;;;;;;;18.40;11.80;;;5.10;37.20;;;;;;5090006;28;20413;-72
2023/12/08 01:20:22;;;;;;;18.15;11.65;;;5.20;39.10;;;;;;5089955;28;20495;-71
2023/12/08 01:22:48;;;;;;;17.38;10.70;;;5.20;38.40;;;;;;5089856;28;20443;-71
2023/12/08 01:25:14;;;;;;;18.60;11.40;;;5.20;36.90;;;;;;5090907;28;20370;-72
2023/12/08 01:27:39;;;;;;;14.98;10.25;;;5.20;37.50;;;;;;5094118;28;20374;-71
2023/12/08 01:30:06;;;;;;;16.15;10.75;;;5.20;35.50;;;;;;5094580;28;20378;-71
2023/12/08 01:32:31;;;;;;;15.98;10.88;;;5.20;37.50;;;;;;5094303;28;20419;-72
2023/12/08 01:34:57;;;;;;;15.25;9.90;;;5.10;35.90;;;;;;5076192;28;20474;-70
2023/12/08 01:37:22;;;;;;;17.13;11.10;;;5.10;35.90;;;;;;5094255;28;20385;-70
2023/12/08 01:39:48;;;;;;;15.40;10.60;;;5.10;36.90;;;;;;5094732;28;20394;-71
2023/12/08 01:42:13;;;;;;;18.58;11.57;;;5.10;36.90;;;;;;5095245;28;20890;-72
2023/12/08 01:44:39;;;;;;;16.45;11.25;;;5.10;36.40;;;;;;5094926;28;20749;-71
2023/12/08 01:47:06;;;;;;;19.25;11.50;;;5.10;37.10;;;;;;5094809;28;20856;-71
2023/12/08 01:49:33;;;;;;;16.97;11.27;;;5.10;37.80;;;;;;5094731;28;20466;-72
2023/12/08 01:51:59;;;;;;;18.38;11.70;;;5.10;37.10;;;;;;5094787;28;20615;-72
2023/12/08 01:54:25;;;;;;;16.27;10.77;;;5.10;36.70;;;;;;5076525;28;20744;-71
2023/12/08 01:56:51;;;;;;;18.75;11.55;;;5.10;35.90;;;;;;5094520;28;20782;-70
2023/12/08 01:59:16;;;;;;;20.75;12.18;;;5.10;37.90;;;;;;5094057;28;20447;-71
2023/12/08 02:01:42;;;;;;;19.00;11.93;;;5.10;37.50;;;;;;5093308;28;20908;-71
2023/12/08 02:04:08;;;;;;;19.43;11.90;;;5.10;37.70;;;;;;5093600;28;20424;-71
2023/12/08 02:06:35;;;;;;;18.00;12.50;;;5.10;37.20;;;;;;5093231;28;20779;-71
2023/12/08 02:09:01;;;;;;;17.80;11.60;;;5.10;37.40;;;;;;5093232;28;20461;-70
2023/12/08 02:11:26;;;;;;;17.00;11.03;;;5.10;36.50;;;;;;5074866;28;20470;-70
2023/12/08 02:13:53;;;;;;;16.40;11.00;;;5.20;36.60;;;;;;5093065;28;20822;-72
2023/12/08 02:16:41;;;;;;;19.67;12.97;;;5.10;36.70;;;;;;5104258;22;20514;-71
2023/12/08 02:19:08;;;;;;;20.50;11.60;;;5.20;38.70;;;;;;5072740;28;20391;-72
2023/12/08 02:21:34;;;;;;;18.33;12.38;;;5.20;39.50;;;;;;5072526;28;20435;-71
2023/12/08 02:24:00;;;;;;;20.35;13.27;;;5.00;40.90;;;;;;5072878;28;20420;-72
2023/12/08 02:26:26;;;;;;;20.67;13.37;;;5.00;44.50;;;;;;5072747;28;20419;-71
2023/12/08 02:28:52;;;;;;;22.02;13.35;;;5.00;43.40;;;;;;5072469;28;20376;-72
2023/12/08 02:31:27;;;;;;;22.13;13.88;;;4.90;46.10;;;;;;5072389;28;20391;-71
2023/12/08 02:33:54;;;;;;;20.70;13.83;;;4.80;46.80;;;;;;5072502;28;20467;-72
2023/12/08 02:36:20;;;;;;;20.98;13.18;;;4.80;47.40;;;;;;5072397;28;20861;-72
2023/12/08 02:38:47;;;;;;;21.02;13.07;;;4.90;46.50;;;;;;5071397;28;20388;-72
2023/12/08 02:41:13;;;;;;;22.17;13.90;;;4.90;48.10;;;;;;5072297;28;20391;-72
2023/12/08 02:43:39;;;;;;;21.40;13.80;;;4.80;48.30;;;;;;5072410;28;20518;-71
2023/12/08 02:46:04;;;;;;;20.80;13.37;;;4.70;47.40;;;;;;5071933;28;20372;-73
2023/12/08 02:48:30;;;;;;;25.17;13.97;;;4.60;50.80;;;;;;5072141;28;20889;-71
2023/12/08 02:50:55;;;;;;;18.27;12.60;;;4.70;51.40;;;;;;5072442;28;20879;-72
2023/12/08 02:53:21;;;;;;;20.27;13.30;;;4.60;50.30;;;;;;5071830;28;20901;-71
2023/12/08 02:55:46;;;;;;;23.50;13.90;;;4.60;50.50;;;;;;5053474;28;20395;-71
2023/12/08 02:58:12;;;;;;;25.03;14.47;;;4.70;49.30;;;;;;5071890;28;20384;-71
2023/12/08 03:00:37;;;;;;;23.60;13.57;;;4.50;51.40;;;;;;5072172;28;20395;-71
2023/12/08 03:03:03;;;;;;;21.03;13.63;;;4.50;53.50;;;;;;5071992;28;20380;-71
2023/12/08 03:05:28;;;;;;;21.00;13.40;;;4.60;53.60;;;;;;5071942;28;20383;-71
2023/12/08 03:07:54;;;;;;;21.37;13.80;;;4.60;52.80;;;;;;5071595;28;20866;-71
2023/12/08 03:10:20;;;;;;;21.20;13.73;;;4.70;53.20;;;;;;5071516;28;20437;-71
2023/12/08 03:12:46;;;;;;;23.20;12.97;;;4.60;54.30;;;;;;5071849;28;20415;-71
2023/12/08 03:15:12;;;;;;;21.42;13.82;;;4.70;53.30;;;;;;5071841;28;20391;-72
2023/12/08 03:17:37;;;;;;;21.87;14.40;;;4.70;52.90;;;;;;5071198;28;20822;-71
2023/12/08 03:20:04;;;;;;;22.27;12.83;;;4.60;52.90;;;;;;5071520;28;20437;-71
2023/12/08 03:22:29;;;;;;;20.65;12.88;;;4.50;52.40;;;;;;5071493;28;20814;-73
2023/12/08 03:24:55;;;;;;;20.33;12.13;;;4.60;51.50;;;;;;5071586;28;20418;-71
2023/12/08 03:27:21;;;;;;;20.35;13.77;;;4.60;50.90;;;;;;5071251;28;20450;-71
2023/12/08 03:29:46;;;;;;;20.42;13.90;;;4.60;52.70;;;;;;5071394;28;20459;-71
2023/12/08 03:32:12;;;;;;;20.75;13.27;;;4.50;50.60;;;;;;5071271;28;20376;-72
2023/12/08 03:34:37;;;;;;;20.15;13.07;;;4.50;50.20;;;;;;5071442;28;20390;-71
2023/12/08 03:37:03;;;;;;;20.05;13.57;;;4.50;50.80;;;;;;5071440;28;20380;-71
2023/12/08 03:39:29;;;;;;;21.77;12.73;;;4.50;51.80;;;;;;5071212;28;20406;-71
2023/12/08 03:41:54;;;;;;;19.58;13.20;;;4.60;50.30;;;;;;5053001;28;20913;-73
2023/12/08 03:44:20;;;;;;;19.67;12.77;;;4.60;48.90;;;;;;5072004;28;20724;-71
2023/12/08 03:46:46;;;;;;;21.67;12.55;;;4.60;49.20;;;;;;5073179;28;20376;-71
2023/12/08 03:49:11;;;;;;;19.70;12.60;;;4.60;49.20;;;;;;5072442;28;20379;-71
2023/12/08 03:51:37;;;;;;;21.53;13.77;;;4.60;49.00;;;;;;5072027;28;20391;-70
2023/12/08 03:54:02;;;;;;;20.20;12.97;;;4.70;48.60;;;;;;5071058;28;20892;-71
2023/12/08 03:56:28;;;;;;;20.40;13.37;;;4.70;49.20;;;;;;5070920;28;20406;-72
2023/12/08 03:58:53;;;;;;;23.00;13.63;;;4.70;48.60;;;;;;5070835;28;20960;-72
2023/12/08 04:01:19;;;;;;;20.73;13.30;;;4.60;49.80;;;;;;5070650;28;20514;-72
2023/12/08 04:03:46;;;;;;;20.05;13.00;;;4.70;48.60;;;;;;5070177;28;20466;-72
2023/12/08 04:06:12;;;;;;;21.60;13.35;;;4.70;48.50;;;;;;5070595;28;20390;-75
2023/12/08 04:08:37;;;;;;;19.30;12.87;;;4.70;49.70;;;;;;5052537;28;20387;-72
2023/12/08 04:11:04;;;;;;;19.63;13.13;;;4.80;50.70;;;;;;5052417;28;20456;-72
2023/12/08 04:13:29;;;;;;;21.27;13.30;;;4.70;50.30;;;;;;5070250;28;20380;-72
2023/12/08 04:15:55;;;;;;;21.17;12.27;;;4.70;50.30;;;;;;5070254;28;21105;-72
2023/12/08 04:18:20;;;;;;;20.03;12.57;;;4.70;50.20;;;;;;5070216;28;21117;-72
2023/12/08 04:20:46;;;;;;;19.37;12.80;;;4.70;50.30;;;;;;5070388;28;20387;-72
2023/12/08 04:23:12;;;;;;;21.67;13.43;;;4.70;51.00;;;;;;5070094;28;20462;-72
2023/12/08 04:25:37;;;;;;;19.93;13.10;;;4.70;51.40;;;;;;5070187;28;20411;-71
2023/12/08 04:28:03;;;;;;;20.33;12.83;;;4.60;53.50;;;;;;5070421;28;20375;-70
2023/12/08 04:30:29;;;;;;;21.95;13.80;;;4.60;52.80;;;;;;5055576;28;20380;-70
2023/12/08 04:32:55;;;;;;;22.10;13.68;;;4.60;53.10;;;;;;5071718;28;21100;-71
2023/12/08 04:35:21;;;;;;;23.85;14.55;;;4.60;53.20;;;;;;5070812;28;20736;-70
2023/12/08 04:37:47;;;;;;;19.63;12.82;;;4.70;56.40;;;;;;5052742;28;20388;-71
2023/12/08 04:40:13;;;;;;;23.20;14.02;;;4.70;55.20;;;;;;5055718;28;20400;-71
2023/12/08 04:42:38;;;;;;;19.73;13.40;;;4.60;56.60;;;;;;5070780;28;20410;-71
2023/12/08 04:45:04;;;;;;;22.52;14.43;;;4.50;56.00;;;;;;5061343;28;20392;-71
2023/12/08 04:47:30;;;;;;;22.87;14.80;;;4.50;60.60;;;;;;5052806;28;20478;-71
2023/12/08 04:49:55;;;;;;;25.17;15.77;;;4.50;58.40;;;;;;5060199;28;20795;-71
2023/12/08 04:52:21;;;;;;;25.13;15.18;;;4.40;60.10;;;;;;5067955;28;20635;-71
2023/12/08 04:54:46;;;;;;;26.13;16.60;;;4.50;61.90;;;;;;5076143;28;20742;-70
2023/12/08 04:57:12;;;;;;;28.33;17.38;;;4.40;64.00;;;;;;5078830;28;20403;-72
2023/12/08 04:59:39;;;;;;;26.40;17.02;;;4.40;66.20;;;;;;5076478;28;20450;-72
2023/12/08 05:02:04;;;;;;;25.30;16.23;;;4.30;66.20;;;;;;5060543;28;20396;-75
2023/12/08 05:04:30;;;;;;;29.40;17.02;;;4.30;68.50;;;;;;5086577;28;20422;-75
2023/12/08 05:06:55;;;;;;;29.85;17.23;;;4.20;69.10;;;;;;5083559;28;20617;-73
2023/12/08 05:09:21;;;;;;;31.10;18.30;;;4.20;70.60;;;;;;5077409;28;20456;-73
2023/12/08 05:11:46;;;;;;;29.25;18.52;;;4.20;72.00;;;;;;5060455;28;20491;-73
2023/12/08 05:14:12;;;;;;;29.60;18.20;;;4.20;72.20;;;;;;5058512;28;20426;-73
2023/12/08 05:16:37;;;;;;;34.13;19.83;;;4.20;70.60;;;;;;5054158;28;20432;-72
2023/12/08 05:19:03;;;;;;;30.03;18.10;;;4.20;72.50;;;;;;5053951;28;20391;-73
2023/12/08 05:21:29;;;;;;;31.93;19.03;;;4.20;71.30;;;;;;5054635;28;20486;-73
2023/12/08 05:23:55;;;;;;;32.78;19.60;;;4.10;73.80;;;;;;5054187;28;20376;-73
2023/12/08 05:26:21;;;;;;;35.63;19.17;;;4.10;75.10;;;;;;5065894;28;20467;-72
2023/12/08 05:28:47;;;;;;;33.27;19.77;;;4.10;74.60;;;;;;5065577;28;20385;-72
2023/12/08 05:31:12;;;;;;;32.60;19.17;;;4.20;75.30;;;;;;5068349;28;20427;-72
2023/12/08 05:33:38;;;;;;;30.67;19.00;;;4.20;74.40;;;;;;5067794;28;20385;-72
2023/12/08 05:36:04;;;;;;;32.72;19.60;;;4.20;71.60;;;;;;5043634;28;20385;-72
2023/12/08 05:38:30;;;;;;;32.38;19.63;;;4.20;75.00;;;;;;5059718;28;20856;-72
2023/12/08 05:40:55;;;;;;;37.00;21.00;;;4.20;72.50;;;;;;5041164;28;20409;-72
2023/12/08 05:43:21;;;;;;;31.45;19.27;;;4.20;75.80;;;;;;5043081;28;20394;-72
2023/12/08 05:45:47;;;;;;;31.73;19.83;;;4.20;75.10;;;;;;5054792;28;20388;-72
2023/12/08 05:48:13;;;;;;;32.25;20.17;;;4.10;72.90;;;;;;5053172;28;20844;-72
2023/12/08 05:50:38;;;;;;;32.80;19.67;;;4.20;71.90;;;;;;5055196;28;20381;-72
2023/12/08 05:53:04;;;;;;;32.78;20.83;;;4.20;69.90;;;;;;5053135;28;20469;-73
2023/12/08 05:55:29;;;;;;;34.17;20.48;;;4.20;73.70;;;;;;5053259;28;20393;-73
2023/12/08 05:57:55;;;;;;;32.60;20.05;;;4.20;72.40;;;;;;5052931;28;20389;-72
2023/12/08 06:00:20;;;;;;;33.53;19.80;;;4.20;72.40;;;;;;5035053;28;20413;-71
2023/12/08 06:02:46;;;;;;;30.50;20.02;;;4.10;74.10;;;;;;5052697;28;20385;-72
2023/12/08 06:05:13;;;;;;;34.20;20.45;;;4.10;74.20;;;;;;5052884;28;20382;-72
2023/12/08 06:07:39;;;;;;;30.77;19.90;;;4.20;73.70;;;;;;5052189;28;20373;-72
2023/12/08 06:10:06;;;;;;;35.83;20.00;;;4.20;73.80;;;;;;5052760;28;20409;-72
2023/12/08 06:12:31;;;;;;;33.42;20.00;;;4.20;74.50;;;;;;5051451;28;20416;-72
2023/12/08 06:15:00;;;;;;;31.35;19.45;;;4.40;71.50;;;;;;5052457;28;20733;-72
2023/12/08 06:17:28;;;;;;;35.60;19.65;;;4.40;69.90;;;;;;5054583;28;20937;-73
2023/12/08 06:19:54;;;;;;;33.53;19.30;;;4.40;71.50;;;;;;5053467;28;20424;-72
2023/12/08 06:22:19;;;;;;;35.00;20.60;;;4.30;71.50;;;;;;5052272;28;20774;-72
2023/12/08 06:24:45;;;;;;;34.75;21.45;;;4.30;75.20;;;;;;5052289;28;20388;-73
2023/12/08 06:27:10;;;;;;;33.97;20.38;;;4.40;74.10;;;;;;5051686;28;20377;-72
2023/12/08 06:29:36;;;;;;;30.63;19.70;;;4.40;74.30;;;;;;5052523;28;20382;-71
2023/12/08 06:32:02;;;;;;;36.40;20.63;;;4.50;72.60;;;;;;5052013;28;20404;-72
2023/12/08 06:34:28;;;;;;;33.67;20.63;;;4.40;71.70;;;;;;5052322;28;20945;-72
2023/12/08 06:36:54;;;;;;;30.23;19.27;;;4.40;70.70;;;;;;5051943;28;20390;-71
2023/12/08 06:39:20;;;;;;;34.33;19.37;;;4.30;70.10;;;;;;5051817;28;20386;-72
2023/12/08 06:41:45;;;;;;;31.65;19.85;;;4.40;71.70;;;;;;5051693;28;20904;-72
2023/12/08 06:44:11;;;;;;;31.23;19.55;;;4.40;70.70;;;;;;5052366;28;20420;-71
2023/12/08 06:46:37;;;;;;;34.75;20.75;;;4.30;73.40;;;;;;5051549;28;20401;-72
2023/12/08 06:49:03;;;;;;;34.83;21.43;;;4.40;74.60;;;;;;5052106;28;20389;-72
2023/12/08 06:51:29;;;;;;;35.20;20.50;;;4.30;76.20;;;;;;5051835;28;20409;-73
2023/12/08 06:53:54;;;;;;;33.22;20.88;;;4.40;76.10;;;;;;5051625;28;20394;-72
2023/12/08 06:56:23;;;;;;;38.23;21.67;;;4.30;77.70;;;;;;5051448;28;20729;-72
2023/12/08 06:58:50;;;;;;;35.35;20.73;;;4.40;79.20;;;;;;5051574;28;20411;-72
2023/12/08 07:01:15;;;;;;;36.17;21.58;;;4.40;77.90;;;;;;5052252;28;20405;-72
2023/12/08 07:03:41;;;;;;;36.40;20.37;;;4.30;77.40;;;;;;5051481;28;20955;-72
2023/12/08 07:06:06;;;;;;;35.30;21.20;;;4.30;77.40;;;;;;5051420;28;20385;-72
2023/12/08 07:08:32;;;;;;;31.97;20.37;;;4.30;78.00;;;;;;5051213;28;20382;-71
2023/12/08 07:10:58;;;;;;;36.63;21.60;;;4.30;75.60;;;;;;5051210;28;20413;-71
2023/12/08 07:13:23;;;;;;;34.72;21.23;;;4.30;77.50;;;;;;5050877;28;20443;-71
2023/12/08 07:15:49;;;;;;;35.95;21.17;;;4.40;76.40;;;;;;5050867;28;20864;-71
2023/12/08 07:18:15;;;;;;;33.42;20.92;;;4.40;74.90;;;;;;5051129;28;20397;-72
2023/12/08 07:20:40;;;;;;;32.30;19.50;;;4.40;75.10;;;;;;5051378;28;20394;-72
2023/12/08 07:23:06;;;;;;;35.88;21.52;;;4.40;75.70;;;;;;5050535;28;20390;-71
2023/12/08 07:25:32;;;;;;;31.27;19.08;;;4.50;75.60;;;;;;5051395;28;20385;-72
2023/12/08 07:27:57;;;;;;;31.42;19.85;;;4.50;73.20;;;;;;5050908;28;20457;-72
2023/12/08 07:30:23;;;;;;;34.90;20.60;;;4.50;72.80;;;;;;5050811;28;20409;-72
2023/12/08 07:32:48;;;;;;;34.17;20.30;;;4.60;71.70;;;;;;5050653;28;20438;-72
2023/12/08 07:35:14;;;;;;;35.42;21.02;;;4.50;73.30;;;;;;5051189;28;20442;-72
2023/12/08 07:37:41;;;;;;;34.25;20.63;;;4.60;73.50;;;;;;5050946;28;20463;-71
2023/12/08 07:40:07;;;;;;;29.67;19.88;;;4.60;73.40;;;;;;5052246;28;20423;-73
2023/12/08 07:42:33;;;;;;;34.50;20.75;;;4.70;71.40;;;;;;5053558;28;20470;-72
2023/12/08 07:44:58;;;;;;;30.53;20.50;;;4.60;69.90;;;;;;5057251;28;20381;-72
2023/12/08 07:47:24;;;;;;;35.35;21.38;;;4.60;71.30;;;;;;5056684;28;20386;-72
2023/12/08 07:49:50;;;;;;;31.77;20.25;;;4.60;72.70;;;;;;5055572;28;20378;-72
2023/12/08 07:52:15;;;;;;;33.47;20.58;;;4.60;71.90;;;;;;5055527;28;20450;-72
2023/12/08 07:54:41;;;;;;;30.63;20.00;;;4.60;72.70;;;;;;5038022;28;20397;-72
2023/12/08 07:57:07;;;;;;;33.63;20.43;;;4.70;70.90;;;;;;5055150;28;20396;-72
2023/12/08 07:59:33;;;;;;;32.78;20.42;;;4.70;72.00;;;;;;5055465;28;20381;-72
2023/12/08 08:01:58;;;;;;;33.15;21.10;;;4.70;71.80;;;;;;5050605;28;20771;-72
2023/12/08 08:04:26;;;;;;;33.67;20.38;;;4.70;73.70;;;;;;5049897;28;20496;-72
2023/12/08 08:06:51;;;;;;;35.00;21.48;;;4.70;69.30;;;;;;5032446;28;20819;-73
2023/12/08 08:09:18;;;;;;;31.33;19.75;;;4.80;70.90;;;;;;5050271;28;20389;-72
2023/12/08 08:11:44;;;;;;;31.20;19.83;;;4.70;68.70;;;;;;5050435;28;20735;-71
2023/12/08 08:14:10;;;;;;;33.27;20.67;;;4.80;68.80;;;;;;5050186;28;20982;-71
2023/12/08 08:16:36;;;;;;;33.40;20.33;;;4.80;70.40;;;;;;5068528;22;20484;-73
2023/12/08 08:19:01;;;;;;;33.42;19.98;;;4.80;69.30;;;;;;5090291;28;20382;-73
2023/12/08 08:21:27;;;;;;;33.58;21.10;;;4.90;69.60;;;;;;5090600;28;20796;-73
2023/12/08 08:23:52;;;;;;;36.10;21.37;;;4.80;70.40;;;;;;5090178;28;20670;-73
2023/12/08 08:26:18;;;;;;;34.53;20.60;;;4.80;70.40;;;;;;5090567;28;20557;-74
2023/12/08 08:28:43;;;;;;;30.40;19.33;;;4.90;71.30;;;;;;5072473;28;20760;-73
2023/12/08 08:31:10;;;;;;;31.15;20.10;;;4.90;69.40;;;;;;5090715;28;20740;-74
2023/12/08 08:33:35;;;;;;;30.23;19.60;;;4.80;68.40;;;;;;5072197;28;20880;-75
2023/12/08 08:36:03;;;;;;;31.90;20.10;;;4.90;69.80;;;;;;5089515;28;20397;-72
2023/12/08 08:38:29;;;;;;;34.45;20.08;;;5.00;68.10;;;;;;5090662;28;20536;-73
2023/12/08 08:40:55;;;;;;;35.00;20.60;;;5.00;68.50;;;;;;5090721;28;20448;-74
2023/12/08 08:43:20;;;;;;;31.17;20.45;;;5.00;69.90;;;;;;5072505;28;20398;-74
2023/12/08 08:45:46;;;;;;;33.75;19.85;;;4.90;69.10;;;;;;5090409;28;20382;-74
2023/12/08 08:48:11;;;;;;;32.67;21.30;;;5.00;70.30;;;;;;5090312;28;20740;-75
2023/12/08 08:50:37;;;;;;;32.47;20.65;;;5.00;69.40;;;;;;5090312;28;20461;-75
2023/12/08 08:53:03;;;;;;;34.65;20.95;;;5.00;69.40;;;;;;5090386;28;20401;-73
2023/12/08 08:55:29;;;;;;;33.53;20.75;;;5.10;69.20;;;;;;5090432;28;20933;-73
2023/12/08 08:57:55;;;;;;;32.55;20.65;;;5.10;69.50;;;;;;5089944;28;20382;-75
2023/12/08 09:00:21;;;;;;;37.55;21.20;;;5.10;68.70;;;;;;5090728;28;20798;-73
2023/12/08 09:02:51;;;;;;;32.67;20.30;;;5.10;68.60;;;;;;5090243;28;20787;-73
2023/12/08 09:05:17;;;;;;;36.00;21.63;;;5.10;70.10;;;;;;5072173;28;20416;-74
2023/12/08 09:07:43;;;;;;;33.85;22.35;;;5.00;71.50;;;;;;5089793;28;20390;-74
2023/12/08 09:10:09;;;;;;;33.97;20.88;;;5.10;72.50;;;;;;5090755;28;20453;-73
2023/12/08 09:12:35;;;;;;;35.17;21.53;;;5.10;74.20;;;;;;5072434;28;20382;-73
2023/12/08 09:15:00;;;;;;;36.03;23.00;;;5.20;73.60;;;;;;5090299;28;20442;-75
2023/12/08 09:17:26;;;;;;;36.70;21.57;;;5.20;75.20;;;;;;5090102;28;20386;-74
2023/12/08 09:19:51;;;;;;;34.40;21.63;;;5.20;77.60;;;;;;5090341;28;20394;-74
2023/12/08 09:22:17;;;;;;;38.73;22.80;;;5.20;79.10;;;;;;5090100;28;20394;-73
2023/12/08 09:24:42;;;;;;;36.63;23.07;;;5.10;80.30;;;;;;5089833;28;20386;-72
2023/12/08 09:27:08;;;;;;;38.97;23.33;;;5.10;81.20;;;;;;5071922;28;20382;-74
2023/12/08 09:29:33;;;;;;;40.50;22.50;;;5.10;83.30;;;;;;5071910;28;20479;-74
2023/12/08 09:31:59;;;;;;;40.83;23.60;;;5.10;84.80;;;;;;5089858;28;20413;-74
2023/12/08 09:34:24;;;;;;;41.00;24.70;;;5.10;87.00;;;;;;5090038;28;20961;-73
2023/12/08 09:36:50;;;;;;;40.20;24.77;;;5.10;89.10;;;;;;5090001;28;20389;-73
2023/12/08 09:39:16;;;;;;;42.15;24.30;;;5.00;91.40;;;;;;5090413;28;20385;-74
2023/12/08 09:41:43;;;;;;;39.38;25.25;;;5.00;93.30;;;;;;5090018;28;20484;-73
2023/12/08 09:44:13;;;;;;;43.10;25.63;;;5.00;93.00;;;;;;5090425;28;20624;-74
2023/12/08 09:46:54;;;;;;;37.73;24.53;;;5.00;94.10;;;;;;5090705;28;20720;-75
2023/12/08 09:49:35;;;;;;;45.75;25.98;;;5.00;94.80;;;;;;5076075;28;20866;-74
2023/12/08 09:52:01;;;;;;;38.00;23.85;;;5.00;95.00;;;;;;5093922;28;20378;-72
2023/12/08 09:54:27;;;;;;;40.67;24.13;;;5.10;95.50;;;;;;5093175;28;20469;-73
2023/12/08 09:56:54;;;;;;;43.55;25.05;;;5.10;97.50;;;;;;5074911;28;20398;-73
2023/12/08 09:59:27;;;;;;;42.33;25.15;;;5.10;97.80;;;;;;5093171;28;20390;-73
2023/12/08 10:01:52;;;;;;;47.25;26.65;;;5.10;98.60;;;;;;5093157;28;20394;-72
2023/12/08 10:04:18;;;;;;;39.55;24.83;;;5.00;98.40;;;;;;5093382;28;20386;-70
2023/12/08 10:06:44;;;;;;;42.63;26.08;;;5.00;97.10;;;;;;5093152;28;20378;-70
2023/12/08 10:09:17;;;;;;;42.40;25.13;;;5.00;95.50;;;;;;5093211;28;20783;-69
2023/12/08 10:11:43;;;;;;;41.90;25.20;;;5.00;96.80;;;;;;5092769;28;20755;-74
2023/12/08 10:14:08;;;;;;;40.80;25.27;;;5.10;95.60;;;;;;5092753;28;20374;-72
2023/12/08 10:16:34;;;;;;;39.72;24.88;;;5.10;95.60;;;;;;5074664;28;20382;-71
2023/12/08 10:19:07;;;;;;;39.75;25.27;;;5.20;95.80;;;;;;5093118;28;20527;-72
2023/12/08 10:21:34;;;;;;;40.60;25.30;;;5.20;93.40;;;;;;5092936;28;20422;-71
2023/12/08 10:24:04;;;;;;;38.53;23.20;;;5.30;91.40;;;;;;5093936;28;20516;-72
2023/12/08 10:26:31;;;;;;;37.65;23.38;;;5.30;87.50;;;;;;5093557;28;20780;-71
2023/12/08 10:28:58;;;;;;;43.07;25.73;;;5.30;89.30;;;;;;5094528;28;20753;-71
2023/12/08 10:31:25;;;;;;;40.88;24.20;;;5.30;90.60;;;;;;5094150;28;20594;-72
2023/12/08 10:33:50;;;;;;;42.28;24.60;;;5.30;91.40;;;;;;5092665;28;20473;-72
2023/12/08 10:36:17;;;;;;;45.17;26.08;;;5.40;91.90;;;;;;5092891;28;20409;-70
2023/12/08 10:38:43;;;;;;;42.90;25.40;;;5.30;91.50;;;;;;5092710;28;20382;-71
2023/12/08 10:41:19;;;;;;;45.03;26.37;;;5.30;91.70;;;;;;5092744;28;20876;-72
2023/12/08 10:43:45;;;;;;;41.83;24.75;;;5.30;90.70;;;;;;5093108;28;20465;-71
2023/12/08 10:46:11;;;;;;;43.95;25.02;;;5.40;90.60;;;;;;5092879;28;20379;-72
2023/12/08 10:48:37;;;;;;;44.95;26.52;;;5.40;89.20;;;;;;5092191;28;20374;-71
2023/12/08 10:51:04;;;;;;;44.45;26.20;;;5.50;87.00;;;;;;5092429;28;20717;-71
2023/12/08 10:53:31;;;;;;;41.13;25.30;;;5.50;87.80;;;;;;5092411;28;20386;-71
2023/12/08 10:56:05;;;;;;;42.08;25.90;;;5.40;88.40;;;;;;5092451;28;20404;-72
2023/12/08 10:58:34;;;;;;;43.80;25.55;;;5.50;88.60;;;;;;5091574;28;20390;-71
2023/12/08 11:01:05;;;;;;;44.72;26.67;;;5.50;89.00;;;;;;5092428;28;20892;-72
2023/12/08 11:03:32;;;;;;;51.20;27.00;;;5.50;88.00;;;;;;5092314;28;20380;-72
2023/12/08 11:06:21;;;;;;;47.63;26.77;;;5.50;89.10;;;;;;5092221;28;20390;-71
2023/12/08 11:08:49;;;;;;;47.25;27.20;;;5.50;90.90;;;;;;5091886;28;20389;-71
2023/12/08 11:11:16;;;;;;;48.60;27.00;;;5.60;92.90;;;;;;5092198;28;20776;-71
2023/12/08 11:13:45;;;;;;;50.42;27.10;;;5.80;91.00;;;;;;5092392;28;20386;-70
2023/12/08 11:16:30;;;;;;;45.70;26.60;;;5.80;89.20;;;;;;5074830;28;20398;-72
2023/12/08 11:18:56;;;;;;;45.95;25.90;;;5.90;89.20;;;;;;5093525;28;20603;-71
2023/12/08 11:21:22;;;;;;;45.30;26.20;;;5.90;85.60;;;;;;5093054;28;20943;-71
2023/12/08 11:23:49;;;;;;;46.88;26.38;;;6.00;88.00;;;;;;5074947;28;20382;-72
2023/12/08 11:26:53;;;;;;;49.45;28.73;;;6.00;84.60;;;;;;5095129;28;20481;-72
2023/12/08 11:29:30;;;;;;;46.38;27.30;;;5.80;87.10;;;;;;5053175;28;20397;-72
2023/12/08 11:32:19;;;;;;;49.83;27.42;;;5.90;89.70;;;;;;5094784;28;20406;-72
2023/12/08 11:34:52;;;;;;;43.50;25.67;;;6.00;90.70;;;;;;5096128;28;20702;-71
2023/12/08 11:37:17;;;;;;;41.45;25.48;;;6.20;87.10;;;;;;5094810;28;20389;-72
2023/12/08 11:39:44;;;;;;;42.47;25.17;;;6.20;85.70;;;;;;5095685;28;20386;-73
2023/12/08 11:42:16;;;;;;;42.85;26.13;;;6.20;85.60;;;;;;5077926;28;20398;-72
2023/12/08 11:44:53;;;;;;;45.03;27.17;;;6.20;85.60;;;;;;5075925;28;20386;-71
2023/12/08 11:47:21;;;;;;;44.45;26.50;;;6.10;85.60;;;;;;5074370;28;20750;-72
2023/12/08 11:49:48;;;;;;;45.35;27.00;;;6.10;85.30;;;;;;5092774;28;20469;-71
2023/12/08 11:52:15;;;;;;;44.42;26.20;;;6.00;85.70;;;;;;5092193;28;20390;-72
2023/12/08 11:55:09;;;;;;;44.17;26.90;;;6.00;86.50;;;;;;5091994;28;20386;-71
2023/12/08 11:57:41;;;;;;;45.53;27.02;;;6.00;86.10;;;;;;5091406;28;20388;-72
2023/12/08 12:00:11;;;;;;;48.27;26.13;;;6.10;86.90;;;;;;5092042;28;20382;-71
2023/12/08 12:02:42;;;;;;;45.10;26.40;;;6.20;87.50;;;;;;5091127;28;20740;-71
2023/12/08 12:05:10;;;;;;;46.83;27.50;;;6.30;86.90;;;;;;5090814;28;20907;-71
2023/12/08 12:07:36;;;;;;;46.10;26.13;;;6.30;87.90;;;;;;5090510;28;20417;-72
2023/12/08 12:10:03;;;;;;;47.85;27.10;;;6.40;86.10;;;;;;5090778;28;20386;-72
2023/12/08 12:12:32;;;;;;;46.05;26.83;;;6.50;86.40;;;;;;5093877;28;20386;-72
2023/12/08 12:15:03;;;;;;;44.73;26.87;;;6.50;85.10;;;;;;5090634;28;20378;-72
2023/12/08 12:17:28;;;;;;;43.38;25.50;;;6.50;83.20;;;;;;5091006;28;20432;-71
2023/12/08 12:19:55;;;;;;;46.20;26.80;;;6.50;81.60;;;;;;5073069;28;20394;-72
2023/12/08 12:22:21;;;;;;;45.97;25.67;;;6.50;82.10;;;;;;5090494;28;20427;-71
2023/12/08 12:24:47;;;;;;;46.65;27.38;;;6.50;81.90;;;;;;5090893;28;20382;-72
2023/12/08 12:27:14;;;;;;;42.37;26.30;;;6.50;83.40;;;;;;5072625;28;20382;-71
2023/12/08 12:29:40;;;;;;;45.67;26.98;;;6.50;83.60;;;;;;5090934;28;20409;-71
2023/12/08 12:32:08;;;;;;;44.25;26.05;;;6.50;84.00;;;;;;5090497;28;20447;-71
2023/12/08 12:34:42;;;;;;;45.20;25.80;;;6.60;84.80;;;;;;5091149;28;20408;-71